CDT,Max TemperatureF,Mean TemperatureF,Min TemperatureF,Max Dew PointF,MeanDew PointF,Min DewpointF,Max Humidity, Mean Humidity, Min Humidity, Max Sea Level PressureIn, Mean Sea Level PressureIn, Min Sea Level PressureIn, Max VisibilityMiles, Mean VisibilityMiles, Min VisibilityMiles, Max Wind SpeedMPH, Mean Wind SpeedMPH, Max Gust SpeedMPH,PrecipitationIn, CloudCover, Events, WindDirDegrees
2012-6-1,64,57,50,54,50,45,94,77,59,30.09,30.02,29.88,10,10,2,20,8,28,0.07,3,Rain,107
2012-6-2,87,69,51,64,54,50,94,65,31,29.97,29.90,29.79,10,10,7,16,7,23,0.00,1,Rain,138
2012-6-3,91,76,60,68,65,61,100,73,41,29.91,29.82,29.76,10,10,1,25,11,41,0.14,1,Rain,165
2012-6-4,91,80,68,70,66,63,100,66,38,29.94,29.87,29.78,10,10,4,15,8,23,0.00,0,,93
2012-6-5,91,80,68,66,64,57,94,67,31,29.93,29.89,29.84,10,10,9,16,7,21,0.00,3,,75
2012-6-6,71,68,64,68,64,59,100,87,73,29.99,29.91,29.85,10,8,1,21,10,25,0.41,5,Rain,101
2012-6-7,82,73,60,66,60,52,100,71,39,30.08,30.04,29.98,10,9,3,21,8,28,0.00,2,,145
2012-6-8,86,72,57,59,55,52,94,61,31,30.10,30.00,29.86,10,10,6,16,8,22,0.00,0,,167
2012-6-9,91,76,60,64,62,59,94,61,41,29.89,29.75,29.63,10,10,6,28,14,36,0.00,1,,169
2012-6-10,100,86,71,70,64,59,83,53,25,29.74,29.64,29.60,10,10,9,26,17,32,0.00,0,,189
2012-6-11,91,80,68,70,51,37,83,42,15,30.08,29.92,29.73,10,10,10,25,13,36,0.00,1,,35
2012-6-12,86,72,57,54,50,46,77,47,25,30.21,30.11,30.02,10,10,10,23,10,32,0.00,1,,116
2012-6-13,89,78,66,63,59,54,78,56,35,30.06,29.96,29.86,10,10,10,24,12,34,0.00,1,,153
2012-6-14,98,82,64,72,66,59,94,63,35,29.98,29.84,29.70,10,10,2,28,16,44,0.32,2,Rain,169
2012-6-15,89,76,62,72,65,61,100,73,46,30.01,29.95,29.91,10,10,2,21,11,24,0.05,1,Rain,125
2012-6-16,91,78,64,72,67,61,94,70,38,30.06,30.00,29.91,10,10,5,22,11,31,0.04,2,Rain,155
2012-6-17,95,82,68,68,63,55,100,59,28,30.03,29.87,29.71,10,10,5,26,11,34,0.00,0,,190
2012-6-18,96,82,68,66,65,63,88,56,32,29.74,29.69,29.65,10,10,10,30,18,40,0.00,0,,176
2012-6-19,93,83,73,66,65,63,73,55,38,29.77,29.73,29.70,10,10,10,36,22,44,0.00,0,,173
2012-6-20,78,76,73,68,67,66,78,75,69,29.85,29.80,29.77,10,10,10,25,21,36,0.00,5,,177
2012-6-21,84,75,66,64,60,54,88,57,35,30.15,30.09,30.03,10,10,9,16,9,22,0.00,2,,63
2012-6-22,89,76,64,66,64,59,88,65,46,30.09,30.00,29.88,10,10,10,17,8,21,0.00,3,,137
2012-6-23,100,86,71,68,62,55,88,49,22,29.88,29.84,29.79,10,10,10,26,16,34,0.00,1,,182
2012-6-24,104,88,73,64,60,54,65,41,20,29.96,29.91,29.88,10,10,10,22,14,28,0.00,0,,189
2012-6-25,105,86,68,63,58,48,83,43,15,29.97,29.90,29.83,10,10,9,14,8,17,0.00,0,,204
2012-6-26,111,91,71,63,56,46,61,33,12,29.85,29.80,29.73,10,10,9,23,10,31,0.00,0,,204
2012-6-27,109,92,75,68,62,46,65,40,12,29.91,29.85,29.79,10,10,9,24,15,33,0.00,0,,189
2012-6-28,107,88,69,63,59,54,73,39,17,29.98,29.93,29.87,10,10,9,22,13,32,0.00,0,,185
2012-6-29,104,90,77,61,56,54,47,31,19,29.97,29.88,29.78,10,10,10,21,15,31,0.00,0,,190
2012-6-30,104,90,75,63,59,55,57,37,20,29.86,29.83,29.78,10,10,10,22,14,32,0.00,0,,189